createdAt,value
2023-04-20T00:00:02.376Z,48.97
2023-04-20T00:03:02.130Z,48.62
2023-04-20T00:05:32.439Z,48.72
2023-04-20T00:08:01.452Z,49.06
2023-04-20T00:10:29.940Z,48.93
2023-04-20T00:12:59.167Z,49.02
2023-04-20T00:15:27.623Z,48.90
2023-04-20T00:17:56.662Z,48.97
2023-04-20T00:20:25.409Z,48.95
2023-04-20T00:22:54.263Z,49.16
2023-04-20T00:25:22.725Z,48.95
2023-04-20T00:27:51.608Z,49.34
2023-04-20T00:30:20.259Z,49.09
2023-04-20T00:32:49.147Z,49.00
2023-04-20T00:35:17.732Z,49.05
2023-04-20T00:37:46.602Z,48.99
2023-04-20T00:40:15.183Z,48.79
2023-04-20T00:42:44.050Z,49.16
2023-04-20T00:45:12.545Z,49.05
2023-04-20T00:47:41.631Z,48.75
2023-04-20T00:50:11.677Z,48.51
2023-04-20T00:52:41.309Z,49.07
2023-04-20T00:55:10.236Z,48.53
2023-04-20T00:57:40.499Z,48.60
2023-04-20T01:00:11.142Z,48.80
2023-04-20T01:02:40.156Z,48.69
2023-04-20T01:05:10.601Z,48.72
2023-04-20T01:07:39.521Z,48.58
2023-04-20T01:10:09.068Z,48.40
2023-04-20T01:12:41.411Z,48.66
2023-04-20T01:15:12.193Z,48.65
2023-04-20T01:17:42.322Z,48.95
2023-04-20T01:20:17.854Z,48.83
2023-04-20T01:22:51.536Z,48.97
2023-04-20T01:25:20.574Z,48.79
2023-04-20T01:27:49.449Z,48.97
2023-04-20T01:30:18.182Z,48.75
2023-04-20T01:32:47.395Z,49.15
2023-04-20T01:35:17.447Z,48.80
2023-04-20T01:37:47.481Z,48.93
2023-04-20T01:40:16.309Z,48.85
2023-04-20T01:42:45.242Z,48.77
2023-04-20T01:45:13.773Z,48.75
2023-04-20T01:47:42.737Z,48.69
2023-04-20T01:50:11.540Z,48.40
2023-04-20T01:52:40.408Z,48.74
2023-04-20T01:55:10.271Z,48.21
2023-04-20T01:57:39.330Z,48.47
2023-04-20T02:00:10.271Z,48.39
2023-04-20T02:02:46.530Z,48.41
2023-04-20T02:05:15.475Z,48.21
2023-04-20T02:07:44.392Z,48.33
2023-04-20T02:10:12.909Z,48.37
2023-04-20T02:12:48.171Z,48.30
2023-04-20T02:15:16.704Z,48.13
2023-04-20T02:17:45.616Z,48.32
2023-04-20T02:20:14.756Z,48.44
2023-04-20T02:22:43.738Z,48.34
2023-04-20T02:25:12.839Z,48.50
2023-04-20T02:27:41.790Z,48.44
2023-04-20T02:30:10.877Z,48.77
2023-04-20T02:32:40.074Z,48.53
2023-04-20T02:35:09.698Z,48.57
2023-04-20T02:37:38.533Z,48.68
2023-04-20T02:40:08.767Z,48.96
2023-04-20T02:42:37.711Z,48.60
2023-04-20T02:45:10.260Z,48.55
2023-04-20T02:47:39.777Z,48.72
2023-04-20T02:50:09.825Z,48.34
2023-04-20T02:52:56.791Z,48.71
2023-04-20T02:55:25.401Z,48.61
2023-04-20T02:57:56.799Z,48.59
2023-04-20T03:00:39.046Z,48.41
2023-04-20T03:03:11.436Z,48.49
2023-04-20T03:05:41.648Z,48.51
2023-04-20T03:08:10.847Z,48.27
2023-04-20T03:10:39.714Z,48.34
2023-04-20T03:13:18.055Z,48.49
2023-04-20T03:15:54.247Z,48.14
2023-04-20T03:18:43.705Z,48.47
2023-04-20T03:21:12.943Z,48.34
2023-04-20T03:23:41.908Z,48.16
2023-04-20T03:26:10.580Z,48.32
2023-04-20T03:28:57.190Z,48.44
2023-04-20T03:31:28.053Z,48.07
2023-04-20T03:33:59.157Z,48.12
2023-04-20T03:36:28.699Z,48.14
2023-04-20T03:38:58.687Z,48.00
2023-04-20T03:41:27.228Z,47.97
2023-04-20T03:43:57.560Z,48.07
2023-04-20T03:46:26.276Z,47.98
2023-04-20T03:48:55.159Z,48.50
2023-04-20T03:51:23.808Z,48.22
2023-04-20T03:53:52.882Z,48.22
2023-04-20T03:56:21.562Z,48.02
2023-04-20T03:58:51.429Z,48.05
2023-04-20T04:01:24.244Z,48.35
2023-04-20T04:03:53.138Z,48.10
2023-04-20T04:06:22.034Z,48.17
2023-04-20T04:08:50.969Z,48.39
2023-04-20T04:11:20.208Z,48.29
2023-04-20T04:13:49.868Z,48.45
2023-04-20T04:16:18.842Z,48.40
2023-04-20T04:18:48.102Z,48.30
2023-04-20T04:21:16.552Z,48.27
2023-04-20T04:23:52.324Z,48.33
2023-04-20T04:26:35.705Z,48.44
2023-04-20T04:29:07.377Z,48.45
2023-04-20T04:31:36.247Z,48.58
2023-04-20T04:34:12.462Z,48.24
2023-04-20T04:36:46.248Z,48.20
2023-04-20T04:39:18.938Z,48.36
2023-04-20T04:41:58.038Z,48.52
2023-04-20T04:44:34.638Z,48.38
2023-04-20T04:47:05.735Z,48.62
2023-04-20T04:49:36.292Z,48.35
2023-04-20T04:52:04.927Z,48.50
2023-04-20T04:54:33.769Z,48.54
2023-04-20T04:57:02.838Z,48.54
2023-04-20T04:59:31.821Z,48.51
2023-04-20T05:02:00.332Z,48.63
2023-04-20T05:04:29.500Z,48.52
2023-04-20T05:06:58.267Z,48.64
2023-04-20T05:09:33.735Z,48.49
2023-04-20T05:12:02.908Z,48.49
2023-04-20T05:14:32.407Z,48.53
2023-04-20T05:17:01.316Z,48.70
2023-04-20T05:19:30.160Z,48.57
2023-04-20T05:21:58.731Z,48.69
2023-04-20T05:24:27.459Z,48.80
2023-04-20T05:26:56.576Z,48.58
2023-04-20T05:29:25.135Z,48.83
2023-04-20T05:31:53.911Z,48.67
2023-04-20T05:34:22.426Z,48.79
2023-04-20T05:36:52.310Z,48.73
2023-04-20T05:39:21.236Z,48.73
2023-04-20T05:41:50.100Z,48.76
2023-04-20T05:44:18.659Z,48.55
2023-04-20T05:46:47.625Z,48.61
2023-04-20T05:49:16.281Z,48.74
2023-04-20T05:51:45.168Z,48.47
2023-04-20T05:54:13.656Z,48.53
2023-04-20T05:56:42.444Z,48.55
2023-04-20T05:59:11.028Z,48.41
2023-04-20T06:01:39.838Z,48.45
2023-04-20T06:04:09.204Z,48.62
2023-04-20T06:06:38.627Z,48.33
2023-04-20T06:09:07.231Z,48.37
2023-04-20T06:11:36.455Z,48.39
2023-04-20T06:14:04.940Z,48.11
2023-04-20T06:16:33.869Z,48.31
2023-04-20T06:19:02.559Z,48.51
2023-04-20T06:21:33.312Z,48.11
2023-04-20T06:24:01.903Z,48.42
2023-04-20T06:26:30.980Z,48.58
2023-04-20T06:28:59.402Z,48.28
2023-04-20T06:31:28.340Z,48.17
2023-04-20T06:33:56.799Z,48.21
2023-04-20T06:36:26.056Z,48.37
2023-04-20T06:38:55.318Z,48.46
2023-04-20T06:41:24.318Z,48.23
2023-04-20T06:43:52.761Z,48.32
2023-04-20T06:46:21.692Z,48.28
2023-04-20T06:48:50.221Z,48.36
2023-04-20T06:51:18.987Z,48.17
2023-04-20T06:53:47.566Z,48.17
2023-04-20T06:56:16.399Z,48.06
2023-04-20T06:58:45.082Z,48.11
2023-04-20T07:01:13.946Z,47.93
2023-04-20T07:03:44.141Z,47.90
2023-04-20T07:06:13.249Z,47.98
2023-04-20T07:08:41.780Z,48.01
2023-04-20T07:11:10.707Z,48.43
2023-04-20T07:13:39.216Z,47.98
2023-04-20T07:16:08.820Z,48.24
2023-04-20T07:18:37.499Z,48.05
2023-04-20T07:21:06.401Z,48.06
2023-04-20T07:23:34.914Z,48.05
2023-04-20T07:26:03.672Z,47.86
2023-04-20T07:28:32.699Z,48.06
2023-04-20T07:31:01.511Z,47.76
2023-04-20T07:33:35.984Z,47.72
2023-04-20T07:36:07.233Z,47.51
2023-04-20T07:38:35.713Z,47.76
2023-04-20T07:41:04.491Z,47.57
2023-04-20T07:43:32.998Z,47.46
2023-04-20T07:46:02.174Z,47.51
2023-04-20T07:48:30.775Z,47.24
2023-04-20T07:50:59.954Z,47.29
2023-04-20T07:53:31.515Z,47.44
2023-04-20T07:56:00.315Z,47.50
2023-04-20T07:58:28.779Z,47.13
2023-04-20T08:00:57.790Z,47.42
2023-04-20T08:03:27.794Z,47.14
2023-04-20T08:05:56.797Z,46.96
2023-04-20T08:08:25.282Z,46.83
2023-04-20T08:10:54.155Z,47.02
2023-04-20T08:13:22.681Z,46.79
2023-04-20T08:15:51.443Z,46.66
2023-04-20T08:18:21.298Z,46.54
2023-04-20T08:20:51.839Z,46.65
2023-04-20T08:23:20.622Z,46.63
2023-04-20T08:25:49.438Z,46.63
2023-04-20T08:28:29.457Z,46.35
2023-04-20T08:31:02.344Z,46.38
2023-04-20T08:33:31.290Z,46.23
2023-04-20T08:36:00.140Z,46.33
2023-04-20T08:38:33.896Z,46.24
2023-04-20T08:41:03.395Z,46.21
2023-04-20T08:43:32.559Z,46.13
2023-04-20T08:46:04.610Z,46.15
2023-04-20T08:48:37.848Z,46.01
2023-04-20T08:51:06.813Z,45.89
2023-04-20T08:53:35.215Z,45.89
2023-04-20T08:56:04.405Z,45.86
2023-04-20T08:58:34.350Z,45.83
2023-04-20T09:01:03.219Z,45.88
2023-04-20T09:03:43.249Z,46.02
2023-04-20T09:06:17.343Z,45.94
2023-04-20T09:08:46.679Z,45.87
2023-04-20T09:11:22.802Z,46.01
2023-04-20T09:14:10.296Z,45.85
2023-04-20T09:16:52.826Z,45.82
2023-04-20T09:19:28.934Z,45.65
2023-04-20T09:22:00.004Z,45.55
2023-04-20T09:24:36.170Z,45.79
2023-04-20T09:27:19.001Z,45.59
2023-04-20T09:30:04.520Z,45.49
2023-04-20T09:32:34.199Z,45.56
2023-04-20T09:35:02.642Z,45.59
2023-04-20T09:37:31.490Z,45.53
2023-04-20T09:40:01.293Z,45.45
2023-04-20T09:42:30.168Z,45.67
2023-04-20T09:44:58.756Z,45.78
2023-04-20T09:47:30.298Z,45.71
2023-04-20T09:50:02.333Z,46.02
2023-04-20T09:52:37.040Z,46.16
2023-04-20T09:55:09.421Z,46.14
2023-04-20T09:57:39.011Z,46.08
2023-04-20T10:00:10.976Z,46.34
2023-04-20T10:02:40.597Z,46.45
2023-04-20T10:05:09.493Z,46.24
2023-04-20T10:07:38.334Z,46.30
2023-04-20T10:10:16.943Z,46.26
2023-04-20T10:12:57.071Z,46.37
2023-04-20T10:15:36.599Z,46.39
2023-04-20T10:18:24.748Z,46.21
2023-04-20T10:21:05.890Z,46.37
2023-04-20T10:23:34.961Z,46.23
2023-04-20T10:26:04.107Z,46.16
2023-04-20T10:28:42.159Z,46.36
2023-04-20T10:31:15.565Z,46.25
2023-04-20T10:33:55.810Z,46.24
2023-04-20T10:36:38.474Z,46.37
2023-04-20T10:39:19.598Z,46.51
2023-04-20T10:42:01.478Z,46.45
2023-04-20T10:44:35.621Z,46.61
2023-04-20T10:47:04.219Z,46.74
2023-04-20T10:49:33.144Z,46.89
2023-04-20T10:52:01.625Z,47.02
2023-04-20T10:54:40.226Z,47.22
2023-04-20T10:57:09.202Z,47.52
2023-04-20T10:59:39.459Z,47.94
2023-04-20T11:02:08.648Z,48.49
2023-04-20T11:04:37.560Z,48.86
2023-04-20T11:07:10.648Z,49.15
2023-04-20T11:09:39.994Z,49.57
2023-04-20T11:12:12.277Z,49.64
2023-04-20T11:15:03.168Z,49.97
2023-04-20T11:17:38.239Z,50.45
2023-04-20T11:20:12.888Z,51.01
2023-04-20T11:22:42.311Z,50.89
2023-04-20T11:25:13.349Z,51.09
2023-04-20T11:27:44.232Z,50.94
2023-04-20T11:30:13.251Z,51.10
2023-04-20T11:32:42.060Z,52.19
2023-04-20T11:35:12.281Z,52.64
2023-04-20T11:37:51.717Z,52.24
2023-04-20T11:40:20.721Z,51.73
2023-04-20T11:42:49.172Z,51.64
2023-04-20T11:45:18.213Z,51.39
2023-04-20T11:47:47.484Z,51.11
2023-04-20T11:50:16.450Z,51.05
2023-04-20T11:52:45.036Z,51.05
2023-04-20T11:55:14.776Z,50.85
2023-04-20T11:57:43.572Z,50.83
2023-04-20T12:00:13.439Z,50.64
2023-04-20T12:02:44.483Z,50.68
2023-04-20T12:05:14.262Z,50.48
2023-04-20T12:07:44.005Z,50.54
2023-04-20T12:10:12.908Z,50.38
2023-04-20T12:12:42.293Z,50.52
2023-04-20T12:15:12.975Z,50.80
2023-04-20T12:17:41.441Z,50.63
2023-04-20T12:20:12.575Z,50.65
2023-04-20T12:22:41.399Z,50.30
2023-04-20T12:25:10.437Z,50.32
2023-04-20T12:27:38.959Z,50.55
2023-04-20T12:30:09.516Z,50.55
2023-04-20T12:32:37.965Z,50.63
2023-04-20T12:35:08.729Z,50.44
2023-04-20T12:37:37.161Z,50.25
2023-04-20T12:40:07.556Z,50.36
2023-04-20T12:42:36.184Z,50.30
2023-04-20T12:45:05.472Z,50.13
2023-04-20T12:47:33.981Z,50.16
2023-04-20T12:50:03.545Z,50.09
2023-04-20T12:52:32.032Z,49.86
2023-04-20T12:55:02.043Z,49.78
2023-04-20T12:57:30.439Z,49.62
2023-04-20T13:00:00.260Z,49.91
2023-04-20T13:02:29.115Z,49.77
2023-04-20T13:04:58.191Z,49.70
2023-04-20T13:07:28.261Z,49.82
2023-04-20T13:09:57.179Z,49.50
2023-04-20T13:12:25.641Z,49.36
2023-04-20T13:14:54.492Z,49.28
2023-04-20T13:17:23.026Z,49.24
2023-04-20T13:19:55.162Z,49.83
2023-04-20T13:22:23.721Z,49.63
2023-04-20T13:24:52.515Z,49.21
2023-04-20T13:27:21.046Z,49.71
2023-04-20T13:29:50.119Z,49.75
2023-04-20T13:32:18.732Z,49.64
2023-04-20T13:34:47.530Z,49.76
2023-04-20T13:37:15.981Z,49.80
2023-04-20T13:39:45.205Z,49.23
2023-04-20T13:42:13.698Z,49.32
2023-04-20T13:44:42.474Z,49.47
2023-04-20T13:47:10.929Z,49.16
2023-04-20T13:49:39.652Z,49.69
2023-04-20T13:52:08.153Z,49.74
2023-04-20T13:54:36.997Z,49.81
2023-04-20T13:57:05.558Z,49.49
2023-04-20T13:59:35.021Z,49.99
2023-04-20T14:02:03.748Z,49.85
2023-04-20T14:04:32.593Z,49.83
2023-04-20T14:07:01.149Z,49.62
2023-04-20T14:09:32.205Z,49.90
2023-04-20T14:12:01.792Z,49.91
2023-04-20T14:14:30.759Z,50.13
2023-04-20T14:16:59.198Z,50.24
2023-04-20T14:19:28.060Z,50.23
2023-04-20T14:21:56.500Z,50.16
2023-04-20T14:24:25.276Z,50.27
2023-04-20T14:26:54.426Z,50.16
2023-04-20T14:29:23.322Z,50.23
2023-04-20T14:31:51.829Z,50.49
2023-04-20T14:34:20.971Z,50.34
2023-04-20T14:36:49.406Z,50.25
2023-04-20T14:39:21.196Z,50.21
2023-04-20T14:41:49.872Z,49.94
2023-04-20T14:44:18.983Z,50.17
2023-04-20T14:46:47.715Z,50.04
2023-04-20T14:49:16.687Z,50.13
2023-04-20T14:51:45.154Z,50.02
2023-04-20T14:54:13.992Z,49.66
2023-04-20T14:56:42.473Z,49.74
2023-04-20T14:59:11.335Z,49.68
2023-04-20T15:01:43.387Z,49.73
2023-04-20T15:04:20.800Z,49.38
2023-04-20T15:06:49.499Z,49.74
2023-04-20T15:09:18.253Z,49.39
2023-04-20T15:11:46.682Z,49.36
2023-04-20T15:14:15.689Z,49.40
2023-04-20T15:16:44.459Z,49.16
2023-04-20T15:19:13.257Z,49.33
2023-04-20T15:21:42.765Z,49.11
2023-04-20T15:24:12.966Z,49.40
2023-04-20T15:26:41.987Z,49.04
2023-04-20T15:29:10.801Z,49.21
2023-04-20T15:31:40.651Z,48.99
2023-04-20T15:34:11.418Z,49.10
2023-04-20T15:36:39.996Z,49.20
2023-04-20T15:39:08.842Z,49.09
2023-04-20T15:41:37.514Z,48.92
2023-04-20T15:44:06.918Z,49.11
2023-04-20T15:46:37.064Z,48.84
2023-04-20T15:49:06.084Z,48.85
2023-04-20T15:51:34.593Z,48.90
2023-04-20T15:54:03.614Z,48.92
2023-04-20T15:56:32.287Z,48.69
2023-04-20T15:59:01.219Z,48.88
2023-04-20T16:01:29.797Z,48.77
2023-04-20T16:03:59.551Z,48.65
2023-04-20T16:06:28.303Z,48.40
2023-04-20T16:08:57.896Z,48.59
2023-04-20T16:11:26.616Z,48.62
2023-04-20T16:13:56.862Z,48.56
2023-04-20T16:16:25.884Z,48.46
2023-04-20T16:18:55.486Z,48.52
2023-04-20T16:21:24.057Z,48.48
2023-04-20T16:23:59.302Z,48.40
2023-04-20T16:26:27.904Z,48.54
2023-04-20T16:28:57.279Z,48.39
2023-04-20T16:31:27.233Z,48.50
2023-04-20T16:33:57.592Z,48.27
2023-04-20T16:36:27.293Z,48.40
2023-04-20T16:38:57.416Z,48.46
2023-04-20T16:41:27.328Z,48.23
2023-04-20T16:43:56.215Z,48.28
2023-04-20T16:46:24.890Z,48.32
2023-04-20T16:48:54.923Z,48.33
2023-04-20T16:51:23.530Z,48.21
2023-04-20T16:53:52.943Z,48.16
2023-04-20T16:56:21.597Z,48.22
2023-04-20T16:58:50.556Z,47.96
2023-04-20T17:01:19.342Z,48.41
2023-04-20T17:03:48.546Z,48.14
2023-04-20T17:06:17.335Z,48.27
2023-04-20T17:08:47.456Z,48.09
2023-04-20T17:11:16.986Z,48.34
2023-04-20T17:13:45.954Z,48.08
2023-04-20T17:16:14.629Z,48.14
2023-04-20T17:18:43.571Z,48.44
2023-04-20T17:21:12.186Z,48.54
2023-04-20T17:23:41.362Z,48.44
2023-04-20T17:26:09.955Z,48.37
2023-04-20T17:28:38.835Z,48.48
2023-04-20T17:31:07.437Z,48.53
2023-04-20T17:33:36.398Z,48.23
2023-04-20T17:36:05.228Z,48.52
2023-04-20T17:38:36.867Z,48.33
2023-04-20T17:41:05.671Z,48.32
2023-04-20T17:43:36.420Z,48.48
2023-04-20T17:46:05.094Z,48.58
2023-04-20T17:48:34.112Z,48.44
2023-04-20T17:51:02.740Z,48.45
2023-04-20T17:53:31.778Z,48.61
2023-04-20T17:56:00.406Z,48.60
2023-04-20T17:58:29.254Z,48.80
2023-04-20T18:00:57.832Z,48.62
2023-04-20T18:03:27.083Z,48.75
2023-04-20T18:05:55.797Z,48.71
2023-04-20T18:08:24.806Z,48.69
2023-04-20T18:10:53.394Z,48.76
2023-04-20T18:13:22.294Z,48.81
2023-04-20T18:15:50.987Z,48.69
2023-04-20T18:18:21.925Z,48.90
2023-04-20T18:20:51.045Z,48.96
2023-04-20T18:23:20.488Z,48.82
2023-04-20T18:25:49.423Z,48.83
2023-04-20T18:28:18.329Z,48.98
2023-04-20T18:30:46.881Z,48.84
2023-04-20T18:33:15.874Z,48.76
2023-04-20T18:35:45.440Z,49.17
2023-04-20T18:38:14.614Z,48.92
2023-04-20T18:40:43.127Z,49.22
2023-04-20T18:43:12.267Z,49.05
2023-04-20T18:45:41.116Z,49.08
2023-04-20T18:48:10.190Z,49.13
2023-04-20T18:50:38.684Z,49.46
2023-04-20T18:53:07.961Z,49.50
2023-04-20T18:55:37.936Z,49.38
2023-04-20T18:58:06.906Z,49.48
2023-04-20T19:00:35.531Z,49.40
2023-04-20T19:03:05.943Z,49.19
2023-04-20T19:05:34.949Z,49.42
2023-04-20T19:08:04.059Z,49.24
2023-04-20T19:10:32.635Z,49.39
2023-04-20T19:13:01.885Z,49.32
2023-04-20T19:15:30.547Z,49.28
2023-04-20T19:17:59.484Z,49.36
2023-04-20T19:20:28.027Z,49.22
2023-04-20T19:22:56.945Z,49.25
2023-04-20T19:25:25.807Z,49.45
2023-04-20T19:27:55.057Z,49.50
2023-04-20T19:30:23.726Z,49.39
2023-04-20T19:32:52.715Z,49.21
2023-04-20T19:35:21.383Z,49.47
2023-04-20T19:37:50.083Z,49.37
2023-04-20T19:40:21.888Z,49.33
2023-04-20T19:42:51.045Z,49.59
2023-04-20T19:45:19.597Z,49.41
2023-04-20T19:47:48.399Z,49.64
2023-04-20T19:50:17.110Z,49.69
2023-04-20T19:52:45.997Z,49.76
2023-04-20T19:55:15.512Z,49.76
2023-04-20T19:57:44.341Z,49.75
2023-04-20T20:00:13.615Z,49.67
2023-04-20T20:02:44.156Z,49.79
2023-04-20T20:05:12.689Z,49.67
2023-04-20T20:07:41.407Z,49.84
2023-04-20T20:10:09.850Z,49.86
2023-04-20T20:12:39.748Z,49.86
2023-04-20T20:15:08.650Z,49.88
2023-04-20T20:17:37.438Z,49.88
2023-04-20T20:20:06.824Z,49.75
2023-04-20T20:22:35.727Z,49.75
2023-04-20T20:25:04.349Z,49.99
2023-04-20T20:27:33.078Z,49.93
2023-04-20T20:30:01.475Z,50.06
2023-04-20T20:32:31.471Z,49.75
2023-04-20T20:35:01.002Z,49.66
2023-04-20T20:37:34.887Z,49.93
2023-04-20T20:40:06.176Z,49.81
2023-04-20T20:42:35.079Z,49.65
2023-04-20T20:45:04.244Z,49.93
2023-04-20T20:47:34.347Z,50.02
2023-04-20T20:50:02.730Z,49.73
2023-04-20T20:52:31.519Z,49.93
2023-04-20T20:55:00.034Z,49.80
2023-04-20T20:57:28.772Z,49.59
2023-04-20T20:59:57.240Z,49.79
2023-04-20T21:02:26.245Z,49.68
2023-04-20T21:04:54.882Z,49.60
2023-04-20T21:07:23.846Z,49.74
2023-04-20T21:09:52.258Z,49.72
2023-04-20T21:12:21.217Z,49.90
2023-04-20T21:14:51.554Z,50.15
2023-04-20T21:17:20.602Z,50.13
2023-04-20T21:19:49.001Z,50.58
2023-04-20T21:22:17.787Z,50.43
2023-04-20T21:24:46.196Z,50.50
2023-04-20T21:27:14.916Z,50.52
2023-04-20T21:29:43.369Z,50.62
2023-04-20T21:32:12.338Z,50.69
2023-04-20T21:34:40.878Z,50.59
2023-04-20T21:37:09.600Z,50.85
2023-04-20T21:39:38.030Z,50.66
2023-04-20T21:42:08.832Z,50.55
2023-04-20T21:44:38.211Z,50.43
2023-04-20T21:47:07.046Z,50.47
2023-04-20T21:49:35.448Z,50.39
2023-04-20T21:52:04.411Z,50.45
2023-04-20T21:54:34.605Z,50.44
2023-04-20T21:57:03.912Z,50.47
2023-04-20T21:59:32.374Z,50.44
2023-04-20T22:02:01.289Z,50.64
2023-04-20T22:04:29.944Z,50.42
2023-04-20T22:06:58.886Z,50.44
2023-04-20T22:09:27.390Z,50.25
2023-04-20T22:11:57.868Z,50.31
2023-04-20T22:14:26.528Z,50.39
2023-04-20T22:16:55.306Z,50.42
2023-04-20T22:19:23.779Z,50.47
2023-04-20T22:21:52.666Z,50.11
2023-04-20T22:24:21.167Z,50.23
2023-04-20T22:26:50.282Z,50.22
2023-04-20T22:29:18.986Z,50.11
2023-04-20T22:31:48.476Z,50.28
2023-04-20T22:34:17.036Z,50.11
2023-04-20T22:36:46.316Z,50.19
2023-04-20T22:39:15.008Z,50.24
2023-04-20T22:41:43.828Z,50.07
2023-04-20T22:44:12.337Z,49.99
2023-04-20T22:46:41.153Z,50.07
2023-04-20T22:49:09.682Z,50.07
2023-04-20T22:51:38.469Z,49.96
2023-04-20T22:54:06.997Z,49.98
2023-04-20T22:56:36.401Z,49.91
2023-04-20T22:59:04.856Z,49.85
2023-04-20T23:01:33.692Z,50.06
2023-04-20T23:04:02.359Z,49.84
2023-04-20T23:06:31.828Z,49.96
2023-04-20T23:09:00.812Z,49.81
2023-04-20T23:11:30.099Z,49.96
2023-04-20T23:13:58.634Z,49.76
2023-04-20T23:16:28.552Z,49.98
2023-04-20T23:18:57.065Z,49.97
2023-04-20T23:21:27.718Z,49.79
2023-04-20T23:23:58.060Z,49.84
2023-04-20T23:26:26.968Z,49.66
2023-04-20T23:28:55.524Z,49.62
2023-04-20T23:31:24.916Z,49.78
2023-04-20T23:33:53.605Z,49.61
2023-04-20T23:36:22.472Z,49.64
2023-04-20T23:38:51.037Z,49.31
2023-04-20T23:41:19.953Z,49.27
2023-04-20T23:43:48.404Z,49.30
2023-04-20T23:46:18.683Z,49.34
2023-04-20T23:48:47.268Z,48.95
2023-04-20T23:51:16.236Z,49.05
2023-04-20T23:53:44.746Z,49.08
2023-04-20T23:56:13.955Z,49.31
2023-04-20T23:58:42.437Z,49.13
